createdAt,value
2019-03-24T00:02:02.445Z,61.29
2019-03-24T00:04:30.468Z,61.17
2019-03-24T00:06:58.556Z,61.19
2019-03-24T00:09:26.611Z,61.05
2019-03-24T00:11:54.560Z,60.78
2019-03-24T00:14:22.573Z,60.52
2019-03-24T00:16:50.620Z,60.48
2019-03-24T00:19:18.603Z,60.49
2019-03-24T00:21:46.644Z,60.53
2019-03-24T00:24:14.697Z,60.38
2019-03-24T00:26:42.777Z,60.30
2019-03-24T00:29:10.755Z,59.46
2019-03-24T00:31:38.847Z,59.76
2019-03-24T00:34:07.118Z,59.54
2019-03-24T00:36:35.294Z,59.56
2019-03-24T00:39:04.611Z,59.53
2019-03-24T00:41:32.661Z,60.03
2019-03-24T00:44:00.770Z,60.00
2019-03-24T00:46:28.806Z,60.12
2019-03-24T00:48:56.764Z,59.62
2019-03-24T00:51:24.808Z,59.76
2019-03-24T00:53:52.786Z,59.35
2019-03-24T00:56:20.805Z,60.12
2019-03-24T00:58:48.766Z,59.85
2019-03-24T01:01:16.819Z,59.47
2019-03-24T01:03:44.817Z,59.39
2019-03-24T01:06:12.821Z,59.72
2019-03-24T01:08:40.907Z,60.15
2019-03-24T01:11:08.911Z,59.36
2019-03-24T01:13:36.918Z,59.84
2019-03-24T01:16:05.075Z,59.47
2019-03-24T01:18:33.074Z,59.40
2019-03-24T01:21:01.018Z,60.03
2019-03-24T01:23:29.046Z,60.35
2019-03-24T01:25:57.046Z,60.69
2019-03-24T01:28:25.001Z,61.10
2019-03-24T01:30:53.005Z,61.35
2019-03-24T01:33:20.961Z,61.70
2019-03-24T01:35:48.949Z,61.64
2019-03-24T01:38:17.111Z,62.15
2019-03-24T01:40:45.184Z,62.24
2019-03-24T01:43:13.259Z,62.38
2019-03-24T01:45:41.272Z,62.32
2019-03-24T01:48:09.260Z,62.27
2019-03-24T01:50:37.209Z,62.45
2019-03-24T01:53:05.161Z,62.05
2019-03-24T01:55:33.144Z,61.76
2019-03-24T01:58:01.148Z,61.56
2019-03-24T02:00:29.225Z,61.83
2019-03-24T02:02:57.197Z,61.58
2019-03-24T02:05:25.241Z,61.46
2019-03-24T02:07:53.262Z,62.17
2019-03-24T02:10:21.278Z,61.29
2019-03-24T02:12:49.272Z,61.34
2019-03-24T02:15:17.401Z,61.59
2019-03-24T02:17:45.363Z,62.55
2019-03-24T02:20:13.584Z,62.77
2019-03-24T02:22:41.697Z,62.49
2019-03-24T02:25:10.067Z,62.56
2019-03-24T02:27:37.968Z,62.73
2019-03-24T02:30:07.601Z,63.11
2019-03-24T02:32:35.620Z,61.79
2019-03-24T02:35:03.874Z,62.61
2019-03-24T02:37:31.990Z,63.02
2019-03-24T02:40:00.312Z,62.87
2019-03-24T02:42:28.537Z,62.63
2019-03-24T02:44:56.544Z,62.71
2019-03-24T02:47:24.507Z,62.34
2019-03-24T02:49:52.534Z,62.39
2019-03-24T02:52:20.537Z,62.77
2019-03-24T02:54:48.524Z,62.63
2019-03-24T02:57:16.528Z,63.24
2019-03-24T02:59:44.539Z,63.49
2019-03-24T03:02:12.461Z,63.63
2019-03-24T03:04:40.452Z,63.61
2019-03-24T03:07:08.584Z,64.04
2019-03-24T03:09:36.587Z,64.50
2019-03-24T03:12:04.744Z,65.05
2019-03-24T03:14:32.764Z,64.31
2019-03-24T03:17:00.766Z,63.98
2019-03-24T03:19:28.756Z,64.17
2019-03-24T03:21:57.121Z,64.52
2019-03-24T03:24:25.141Z,65.86
2019-03-24T03:26:53.190Z,66.24
2019-03-24T03:29:21.292Z,66.71
2019-03-24T03:31:49.294Z,64.78
2019-03-24T03:34:17.346Z,64.61
2019-03-24T03:36:45.281Z,64.48
2019-03-24T03:39:13.342Z,64.55
2019-03-24T03:41:41.420Z,65.38
2019-03-24T03:44:09.361Z,65.21
2019-03-24T03:46:37.399Z,65.34
2019-03-24T03:49:05.592Z,64.62
2019-03-24T03:51:33.546Z,64.35
2019-03-24T03:54:01.542Z,64.45
2019-03-24T03:56:29.639Z,64.57
2019-03-24T03:58:57.604Z,65.17
2019-03-24T04:01:25.647Z,66.18
2019-03-24T04:03:53.744Z,66.68
2019-03-24T04:06:21.796Z,68.58
2019-03-24T04:08:49.840Z,67.12
2019-03-24T04:11:17.811Z,67.34
2019-03-24T04:13:45.825Z,67.76
2019-03-24T04:16:13.707Z,68.05
2019-03-24T04:18:41.714Z,67.78
2019-03-24T04:21:09.739Z,67.97
2019-03-24T04:23:37.878Z,67.80
2019-03-24T04:26:05.888Z,68.19
2019-03-24T04:28:33.873Z,68.07
2019-03-24T04:31:01.900Z,68.04
2019-03-24T04:33:29.894Z,67.84
2019-03-24T04:35:58.206Z,67.77
2019-03-24T04:38:26.289Z,67.77
2019-03-24T04:40:54.386Z,67.39
2019-03-24T04:43:22.594Z,67.20
2019-03-24T04:45:50.503Z,67.01
2019-03-24T04:48:18.517Z,66.78
2019-03-24T04:50:46.564Z,66.82
2019-03-24T04:53:14.650Z,66.43
2019-03-24T04:55:43.724Z,65.82
2019-03-24T04:58:11.757Z,66.03
2019-03-24T05:00:40.549Z,66.26
2019-03-24T05:03:08.516Z,66.53
2019-03-24T05:05:38.328Z,67.03
2019-03-24T05:08:08.384Z,66.23
2019-03-24T05:10:36.427Z,64.03
2019-03-24T05:13:04.517Z,65.10
2019-03-24T05:15:32.800Z,64.58
2019-03-24T05:18:00.841Z,64.89
2019-03-24T05:20:28.848Z,63.26
2019-03-24T05:22:56.869Z,63.39
2019-03-24T05:25:24.834Z,63.08
2019-03-24T05:27:52.832Z,62.84
2019-03-24T05:30:20.846Z,62.89
2019-03-24T05:32:48.870Z,62.32
2019-03-24T05:35:16.918Z,61.43
2019-03-24T05:37:45.061Z,61.11
2019-03-24T05:40:13.159Z,60.91
2019-03-24T05:42:41.233Z,61.33
2019-03-24T05:45:09.925Z,59.80
2019-03-24T05:47:37.899Z,61.20
2019-03-24T05:50:06.503Z,60.35
2019-03-24T05:52:34.551Z,60.58
2019-03-24T05:55:02.599Z,61.31
2019-03-24T05:57:30.611Z,60.63
2019-03-24T05:59:58.663Z,61.11
2019-03-24T06:02:26.660Z,61.77
2019-03-24T06:04:54.713Z,62.30
2019-03-24T06:07:24.256Z,64.60
2019-03-24T06:09:52.365Z,63.46
2019-03-24T06:12:22.435Z,61.59
2019-03-24T06:14:50.583Z,61.34
2019-03-24T06:17:18.550Z,61.62
2019-03-24T06:19:46.642Z,61.21
2019-03-24T06:22:14.675Z,60.96
2019-03-24T06:24:42.783Z,59.95
2019-03-24T06:27:10.886Z,60.40
2019-03-24T06:29:38.820Z,59.84
2019-03-24T06:32:06.829Z,59.34
2019-03-24T06:34:34.952Z,59.05
2019-03-24T06:37:03.432Z,59.31
2019-03-24T06:39:31.489Z,58.88
2019-03-24T06:41:59.652Z,58.75
2019-03-24T06:44:27.639Z,58.42
2019-03-24T06:46:55.828Z,57.80
2019-03-24T06:49:23.829Z,57.14
2019-03-24T06:51:51.851Z,57.39
2019-03-24T06:54:21.250Z,58.11
2019-03-24T06:56:49.286Z,57.51
2019-03-24T06:59:17.279Z,57.55
2019-03-24T07:01:45.476Z,57.23
2019-03-24T07:04:13.587Z,56.85
2019-03-24T07:06:41.771Z,55.23
2019-03-24T07:09:09.993Z,54.74
2019-03-24T07:11:37.942Z,55.18
2019-03-24T07:14:06.017Z,54.01
2019-03-24T07:16:34.044Z,53.36
2019-03-24T07:19:02.232Z,53.52
2019-03-24T07:21:30.213Z,52.92
2019-03-24T07:24:00.529Z,50.67
2019-03-24T07:26:28.337Z,51.76
2019-03-24T07:28:56.363Z,51.67
2019-03-24T07:31:24.399Z,52.10
2019-03-24T07:33:52.409Z,51.70
2019-03-24T07:36:20.567Z,49.67
2019-03-24T07:38:48.572Z,50.67
2019-03-24T07:41:16.631Z,50.63
2019-03-24T07:43:44.651Z,50.96
2019-03-24T07:46:14.005Z,50.88
2019-03-24T07:48:42.475Z,51.28
2019-03-24T07:51:11.589Z,50.85
2019-03-24T07:53:39.626Z,50.06
2019-03-24T07:56:07.631Z,49.75
2019-03-24T07:58:37.147Z,48.84
2019-03-24T08:01:05.426Z,48.80
2019-03-24T08:03:33.507Z,48.66
2019-03-24T08:06:01.447Z,48.63
2019-03-24T08:08:29.588Z,48.69
2019-03-24T08:11:00.185Z,49.21
2019-03-24T08:13:28.141Z,48.09
2019-03-24T08:15:56.163Z,47.95
2019-03-24T08:18:29.892Z,47.63
2019-03-24T08:20:54.242Z,47.47
2019-03-24T08:23:22.264Z,47.79
2019-03-24T08:25:50.648Z,47.02
2019-03-24T08:28:18.785Z,45.99
2019-03-24T08:30:46.815Z,44.85
2019-03-24T08:33:14.837Z,44.65
2019-03-24T08:35:42.971Z,43.71
2019-03-24T08:38:11.186Z,42.47
2019-03-24T08:40:39.324Z,41.23
2019-03-24T08:43:07.444Z,40.73
2019-03-24T08:45:35.424Z,40.82
2019-03-24T08:48:03.749Z,40.57
2019-03-24T08:50:31.882Z,40.58
2019-03-24T08:52:59.967Z,39.58
2019-03-24T08:55:28.170Z,38.98
2019-03-24T08:57:56.298Z,38.28
2019-03-24T09:00:30.654Z,38.11
2019-03-24T09:02:55.026Z,38.70
2019-03-24T09:05:23.146Z,38.59
2019-03-24T09:07:51.240Z,39.22
2019-03-24T09:10:19.439Z,38.58
2019-03-24T09:12:47.406Z,37.72
2019-03-24T09:15:15.535Z,37.13
2019-03-24T09:17:43.662Z,36.21
2019-03-24T09:20:14.273Z,36.21
2019-03-24T09:22:42.203Z,35.50
2019-03-24T09:25:10.897Z,35.14
2019-03-24T09:27:39.103Z,35.24
2019-03-24T09:30:14.093Z,34.66
2019-03-24T09:32:42.169Z,34.62
2019-03-24T09:35:10.420Z,34.91
2019-03-24T09:37:38.455Z,35.85
2019-03-24T09:40:09.392Z,36.38
2019-03-24T09:42:37.421Z,35.22
2019-03-24T09:45:05.525Z,34.61
2019-03-24T09:47:33.537Z,34.28
2019-03-24T09:50:01.817Z,33.87
2019-03-24T09:52:30.002Z,32.76
2019-03-24T09:54:58.062Z,32.60
2019-03-24T09:57:26.168Z,33.88
2019-03-24T09:59:54.191Z,34.11
2019-03-24T10:02:22.190Z,33.67
2019-03-24T10:04:50.323Z,33.18
2019-03-24T10:07:18.322Z,33.00
2019-03-24T10:09:46.426Z,32.85
2019-03-24T10:12:14.640Z,31.93
2019-03-24T10:14:42.756Z,32.04
2019-03-24T10:17:10.810Z,31.68
2019-03-24T10:19:38.867Z,31.87
2019-03-24T10:22:06.899Z,32.15
2019-03-24T10:24:34.891Z,31.87
2019-03-24T10:27:04.403Z,32.33
2019-03-24T10:29:32.425Z,32.00
2019-03-24T10:32:00.859Z,31.16
2019-03-24T10:34:29.353Z,32.11
2019-03-24T10:36:57.675Z,32.69
2019-03-24T10:39:25.687Z,33.10
2019-03-24T10:41:53.800Z,32.77
2019-03-24T10:44:21.826Z,32.28
2019-03-24T10:46:49.873Z,31.90
2019-03-24T10:49:24.689Z,31.85
2019-03-24T10:51:47.827Z,32.11
2019-03-24T10:54:16.188Z,32.47
2019-03-24T10:56:44.689Z,32.72
2019-03-24T10:59:12.777Z,33.11
2019-03-24T11:01:41.056Z,33.21
2019-03-24T11:04:09.273Z,33.43
2019-03-24T11:06:37.349Z,32.54
2019-03-24T11:09:06.022Z,32.38
2019-03-24T11:11:34.045Z,32.50
2019-03-24T11:14:02.135Z,32.55
2019-03-24T11:16:30.207Z,32.12
2019-03-24T11:18:58.260Z,31.49
2019-03-24T11:21:26.329Z,30.80
2019-03-24T11:23:54.385Z,30.14
2019-03-24T11:26:22.518Z,30.79
2019-03-24T11:28:50.527Z,30.54
2019-03-24T11:31:18.579Z,30.22
2019-03-24T11:33:46.579Z,30.32
2019-03-24T11:36:14.622Z,29.58
2019-03-24T11:38:42.868Z,29.45
2019-03-24T11:41:10.927Z,29.17
2019-03-24T11:43:38.871Z,28.86
2019-03-24T11:46:06.849Z,28.90
2019-03-24T11:48:35.057Z,29.39
2019-03-24T11:51:03.052Z,29.21
2019-03-24T11:53:31.155Z,29.39
2019-03-24T11:55:59.244Z,28.68
2019-03-24T11:58:28.674Z,28.00
2019-03-24T12:00:56.808Z,28.12
2019-03-24T12:03:25.480Z,27.94
2019-03-24T12:05:53.788Z,28.54
2019-03-24T12:08:22.358Z,29.26
2019-03-24T12:10:51.068Z,29.19
2019-03-24T12:13:19.110Z,29.28
2019-03-24T12:15:47.855Z,28.87
2019-03-24T12:18:16.316Z,29.41
2019-03-24T12:20:44.385Z,29.56
2019-03-24T12:23:12.494Z,29.05
2019-03-24T12:25:40.469Z,28.71
2019-03-24T12:28:08.463Z,27.92
2019-03-24T12:30:36.517Z,28.30
2019-03-24T12:33:04.499Z,28.55
2019-03-24T12:35:32.501Z,28.41
2019-03-24T12:38:00.638Z,28.01
2019-03-24T12:40:29.276Z,27.89
2019-03-24T12:42:57.357Z,28.01
2019-03-24T12:45:25.399Z,28.27
2019-03-24T12:47:53.456Z,28.54
2019-03-24T12:50:30.889Z,27.98
2019-03-24T12:52:51.532Z,27.29
2019-03-24T12:55:19.576Z,26.81
2019-03-24T12:57:47.647Z,26.57
2019-03-24T13:00:31.179Z,26.56
2019-03-24T13:02:59.670Z,26.74
2019-03-24T13:05:28.033Z,26.42
2019-03-24T13:07:58.815Z,25.93
2019-03-24T13:10:27.106Z,25.81
2019-03-24T13:12:55.328Z,25.35
2019-03-24T13:15:23.593Z,26.47
2019-03-24T13:17:51.971Z,26.93
2019-03-24T13:20:35.225Z,26.92
2019-03-24T13:22:50.114Z,27.49
2019-03-24T13:25:18.406Z,28.19
2019-03-24T13:27:46.529Z,27.67
2019-03-24T13:30:14.812Z,27.88
2019-03-24T13:32:42.859Z,28.03
2019-03-24T13:35:11.045Z,28.01
2019-03-24T13:37:39.254Z,27.24
2019-03-24T13:40:07.715Z,27.44
2019-03-24T13:42:35.806Z,27.04
2019-03-24T13:45:05.692Z,26.71
2019-03-24T13:47:33.728Z,26.90
2019-03-24T13:50:02.236Z,26.99
2019-03-24T13:52:30.651Z,27.29
2019-03-24T13:54:58.619Z,27.45
2019-03-24T13:57:26.682Z,27.17
2019-03-24T13:59:54.944Z,26.99
2019-03-24T14:02:23.079Z,27.31
2019-03-24T14:04:51.100Z,27.61
2019-03-24T14:07:19.207Z,27.43
2019-03-24T14:09:47.240Z,27.08
2019-03-24T14:12:15.534Z,26.69
2019-03-24T14:14:43.758Z,27.00
2019-03-24T14:17:11.759Z,26.98
2019-03-24T14:19:39.801Z,27.05
2019-03-24T14:22:07.914Z,27.26
2019-03-24T14:24:35.887Z,27.47
2019-03-24T14:27:04.084Z,27.32
2019-03-24T14:29:32.207Z,27.15
2019-03-24T14:32:00.261Z,27.62
2019-03-24T14:34:28.323Z,26.87
2019-03-24T14:36:56.517Z,26.90
2019-03-24T14:39:24.642Z,26.58
2019-03-24T14:41:52.752Z,26.93
2019-03-24T14:44:21.872Z,26.62
2019-03-24T14:46:49.890Z,26.10
2019-03-24T14:49:18.037Z,25.75
2019-03-24T14:51:46.082Z,25.14
2019-03-24T14:54:14.203Z,24.81
2019-03-24T14:56:42.236Z,25.20
2019-03-24T14:59:10.336Z,25.72
2019-03-24T15:01:38.274Z,25.78
2019-03-24T15:04:06.297Z,25.77
2019-03-24T15:06:34.348Z,26.54
2019-03-24T15:09:04.297Z,26.56
2019-03-24T15:11:32.368Z,27.27
2019-03-24T15:14:00.531Z,27.36
2019-03-24T15:16:28.624Z,27.04
2019-03-24T15:18:56.741Z,27.21
2019-03-24T15:21:24.754Z,26.97
2019-03-24T15:23:52.751Z,27.02
2019-03-24T15:26:20.788Z,27.22
2019-03-24T15:28:48.817Z,27.31
2019-03-24T15:31:16.886Z,26.91
2019-03-24T15:33:44.977Z,27.11
2019-03-24T15:36:13.028Z,26.94
2019-03-24T15:38:41.166Z,26.92
2019-03-24T15:41:09.153Z,27.19
2019-03-24T15:43:37.728Z,27.37
2019-03-24T15:46:05.782Z,26.86
2019-03-24T15:48:33.970Z,27.24
2019-03-24T15:51:02.153Z,27.32
2019-03-24T15:53:30.103Z,26.94
2019-03-24T15:55:58.165Z,27.15
2019-03-24T15:58:26.441Z,27.16
2019-03-24T16:00:54.577Z,27.56
2019-03-24T16:03:22.529Z,26.66
2019-03-24T16:05:50.606Z,23.85
2019-03-24T16:08:18.713Z,23.70
2019-03-24T16:10:46.771Z,24.09
2019-03-24T16:13:14.771Z,24.44
2019-03-24T16:15:42.944Z,24.47
2019-03-24T16:18:11.094Z,24.60
2019-03-24T16:20:39.081Z,24.80
2019-03-24T16:23:07.114Z,24.81
2019-03-24T16:25:35.138Z,24.99
2019-03-24T16:28:03.184Z,25.08
2019-03-24T16:30:31.246Z,25.58
2019-03-24T16:32:59.242Z,26.03
2019-03-24T16:35:27.222Z,26.46
2019-03-24T16:37:55.244Z,26.61
2019-03-24T16:40:23.420Z,26.92
2019-03-24T16:42:51.482Z,26.90
2019-03-24T16:45:19.937Z,26.87
2019-03-24T16:47:48.065Z,26.85
2019-03-24T16:50:17.422Z,26.85
2019-03-24T16:52:45.432Z,27.28
2019-03-24T16:55:13.479Z,27.25
2019-03-24T16:57:42.296Z,27.47
2019-03-24T17:00:11.549Z,27.33
2019-03-24T17:02:39.654Z,27.42
2019-03-24T17:05:07.975Z,27.72
2019-03-24T17:07:36.280Z,27.98
2019-03-24T17:10:04.807Z,28.56
2019-03-24T17:12:32.950Z,27.82
2019-03-24T17:15:01.180Z,27.80
2019-03-24T17:17:29.389Z,28.21
2019-03-24T17:19:57.422Z,28.62
2019-03-24T17:22:25.472Z,28.12
2019-03-24T17:24:53.839Z,28.58
2019-03-24T17:27:21.930Z,28.45
2019-03-24T17:29:50.301Z,28.58
2019-03-24T17:32:18.475Z,28.61
2019-03-24T17:34:47.491Z,28.45
2019-03-24T17:37:15.685Z,28.48
2019-03-24T17:39:43.916Z,28.96
2019-03-24T17:42:11.938Z,28.94
2019-03-24T17:44:40.023Z,28.38
2019-03-24T17:47:08.172Z,28.00
2019-03-24T17:49:36.782Z,27.77
2019-03-24T17:52:05.746Z,28.19
2019-03-24T17:54:34.904Z,28.36
2019-03-24T17:57:03.418Z,28.69
2019-03-24T17:59:31.505Z,28.60
2019-03-24T18:01:59.577Z,28.44
2019-03-24T18:04:27.859Z,28.51
2019-03-24T18:06:55.933Z,28.79
2019-03-24T18:09:24.005Z,28.76
2019-03-24T18:11:52.091Z,28.93
2019-03-24T18:14:20.064Z,28.94
2019-03-24T18:16:48.539Z,29.16
2019-03-24T18:19:16.965Z,29.08
2019-03-24T18:21:45.209Z,29.51
2019-03-24T18:24:13.617Z,30.14
2019-03-24T18:26:41.715Z,30.06
2019-03-24T18:29:10.065Z,30.41
2019-03-24T18:31:38.198Z,30.71
2019-03-24T18:34:06.381Z,31.44
2019-03-24T18:36:34.428Z,31.81
2019-03-24T18:39:04.394Z,31.64
2019-03-24T18:41:32.735Z,31.67
2019-03-24T18:44:01.076Z,32.17
2019-03-24T18:46:29.105Z,32.69
2019-03-24T18:48:57.128Z,32.84
2019-03-24T18:51:25.462Z,32.69
2019-03-24T18:53:53.643Z,33.19
2019-03-24T18:56:21.627Z,33.33
2019-03-24T18:58:49.644Z,33.81
2019-03-24T19:01:17.702Z,33.99
2019-03-24T19:03:45.679Z,34.49
2019-03-24T19:06:13.725Z,34.75
2019-03-24T19:08:41.738Z,35.17
2019-03-24T19:11:09.848Z,36.09
2019-03-24T19:13:37.806Z,36.74
2019-03-24T19:16:06.017Z,36.89
2019-03-24T19:18:35.293Z,36.53
2019-03-24T19:21:04.890Z,36.70
2019-03-24T19:23:33.297Z,37.00
2019-03-24T19:26:01.266Z,37.17
2019-03-24T19:28:29.752Z,37.16
2019-03-24T19:30:57.674Z,36.94
2019-03-24T19:33:25.686Z,37.12
2019-03-24T19:35:55.254Z,37.54
2019-03-24T19:38:25.199Z,37.52
2019-03-24T19:40:53.741Z,37.64
2019-03-24T19:43:24.853Z,37.59
2019-03-24T19:45:52.792Z,37.81
2019-03-24T19:48:21.290Z,37.63
2019-03-24T19:50:49.470Z,37.44
2019-03-24T19:53:17.393Z,37.63
2019-03-24T19:55:45.407Z,38.12
2019-03-24T19:58:13.768Z,38.59
2019-03-24T20:00:41.799Z,38.99
2019-03-24T20:03:09.832Z,38.67
2019-03-24T20:05:38.174Z,39.41
2019-03-24T20:08:06.191Z,39.40
2019-03-24T20:10:34.727Z,39.73
2019-03-24T20:13:02.800Z,39.92
2019-03-24T20:15:30.882Z,40.28
2019-03-24T20:17:59.052Z,40.51
2019-03-24T20:20:27.368Z,40.97
2019-03-24T20:22:57.018Z,41.61
2019-03-24T20:25:25.389Z,42.14
2019-03-24T20:27:53.795Z,41.33
2019-03-24T20:30:22.440Z,41.69
2019-03-24T20:32:51.080Z,41.41
2019-03-24T20:35:19.329Z,41.67
2019-03-24T20:37:48.636Z,41.37
2019-03-24T20:40:17.115Z,40.88
2019-03-24T20:42:45.205Z,40.63
2019-03-24T20:45:14.139Z,40.26
2019-03-24T20:47:42.322Z,40.64
2019-03-24T20:50:11.077Z,40.98
2019-03-24T20:52:39.227Z,40.75
2019-03-24T20:55:08.403Z,40.84
2019-03-24T20:57:36.720Z,40.63
2019-03-24T21:00:07.043Z,41.44
2019-03-24T21:02:35.269Z,41.66
2019-03-24T21:05:03.468Z,41.92
2019-03-24T21:07:31.490Z,41.86
2019-03-24T21:09:59.547Z,41.17
2019-03-24T21:12:27.523Z,40.62
2019-03-24T21:14:55.744Z,40.41
2019-03-24T21:17:23.905Z,40.29
2019-03-24T21:19:51.984Z,40.86
2019-03-24T21:22:19.974Z,41.13
2019-03-24T21:24:48.196Z,41.10
2019-03-24T21:27:16.728Z,41.47
2019-03-24T21:29:44.774Z,40.94
2019-03-24T21:32:12.850Z,40.70
2019-03-24T21:34:40.815Z,40.88
2019-03-24T21:37:08.921Z,41.20
2019-03-24T21:39:36.982Z,41.59
2019-03-24T21:42:05.315Z,41.64
2019-03-24T21:44:33.422Z,41.76
2019-03-24T21:47:01.463Z,41.87
2019-03-24T21:49:29.441Z,41.96
2019-03-24T21:51:57.530Z,42.28
2019-03-24T21:54:25.955Z,42.30
2019-03-24T21:56:54.522Z,42.54
2019-03-24T21:59:22.828Z,42.23
2019-03-24T22:01:50.827Z,42.71
2019-03-24T22:04:19.333Z,42.67
2019-03-24T22:06:47.343Z,42.83
2019-03-24T22:09:15.314Z,42.75
2019-03-24T22:11:43.408Z,43.17
2019-03-24T22:14:11.418Z,42.91
2019-03-24T22:16:39.561Z,43.33
2019-03-24T22:19:07.574Z,42.89
2019-03-24T22:21:35.608Z,42.80
2019-03-24T22:24:03.612Z,43.15
2019-03-24T22:26:31.700Z,42.89
2019-03-24T22:28:59.684Z,42.99
2019-03-24T22:31:27.770Z,43.02
2019-03-24T22:33:55.766Z,43.10
2019-03-24T22:36:23.777Z,43.10
2019-03-24T22:38:51.811Z,43.65
2019-03-24T22:41:20.014Z,44.41
2019-03-24T22:43:48.001Z,44.86
2019-03-24T22:46:16.050Z,44.90
2019-03-24T22:48:44.029Z,44.64
2019-03-24T22:51:12.051Z,44.14
2019-03-24T22:53:40.172Z,44.01
2019-03-24T22:56:08.892Z,44.00
2019-03-24T22:58:36.910Z,44.48
2019-03-24T23:01:04.919Z,44.69
2019-03-24T23:03:32.926Z,45.38
2019-03-24T23:06:01.085Z,46.73
2019-03-24T23:08:29.071Z,46.64
2019-03-24T23:10:57.086Z,46.88
2019-03-24T23:13:25.024Z,46.74
2019-03-24T23:15:53.021Z,47.85
2019-03-24T23:18:21.142Z,47.99
2019-03-24T23:20:49.186Z,47.79
2019-03-24T23:23:17.359Z,47.09
2019-03-24T23:25:45.497Z,46.47
2019-03-24T23:28:13.601Z,46.77
2019-03-24T23:30:42.153Z,47.24
2019-03-24T23:33:10.417Z,48.22
2019-03-24T23:35:38.499Z,48.25
2019-03-24T23:38:06.436Z,48.14
2019-03-24T23:40:34.521Z,47.74
2019-03-24T23:43:02.582Z,48.34
2019-03-24T23:45:30.614Z,47.62
2019-03-24T23:47:58.610Z,47.45
2019-03-24T23:50:26.535Z,47.62
2019-03-24T23:52:54.542Z,48.06
2019-03-24T23:55:22.577Z,47.26
2019-03-24T23:57:50.527Z,47.42
